sensor_id;sensor_type;location;lat;lon;timestamp;pressure;altitude;pressure_sealevel;temperature;humidity
21449;BME280;10885;52.830;13.788;2022-11-20T07:35:00;100550.53;;;0.06;74.20
21449;BME280;10885;52.830;13.788;2022-11-20T07:40:21;100553.06;;;0.32;74.03
21449;BME280;10885;52.830;13.788;2022-11-20T07:45:42;100554.69;;;0.14;74.25
21449;BME280;10885;52.830;13.788;2022-11-20T07:51:03;100550.53;;;0.06;74.21
21449;BME280;10885;52.830;13.788;2022-11-20T07:56:23;100548.16;;;0.07;74.54
21449;BME280;10885;52.830;13.788;2022-11-20T08:01:44;100544.59;;;0.05;74.21
21449;BME280;10885;52.830;13.788;2022-11-20T08:07:05;100541.47;;;0.08;74.82
21449;BME280;10885;52.830;13.788;2022-11-20T08:12:26;100541.34;;;0.15;74.77
21449;BME280;10885;52.830;13.788;2022-11-20T08:18:10;100538.09;;;0.25;74.60
21449;BME280;10885;52.830;13.788;2022-11-20T08:23:52;100535.84;;;0.28;74.25
21449;BME280;10885;52.830;13.788;2022-11-20T08:29:12;100528.00;;;0.33;74.71
21449;BME280;10885;52.830;13.788;2022-11-20T08:34:33;100537.34;;;0.43;74.56
21449;BME280;10885;52.830;13.788;2022-11-20T08:39:55;100537.94;;;0.58;74.74
21449;BME280;10885;52.830;13.788;2022-11-20T08:45:18;100525.59;;;0.61;74.84
21449;BME280;10885;52.830;13.788;2022-11-20T08:50:39;100518.81;;;0.60;74.73
21449;BME280;10885;52.830;13.788;2022-11-20T08:56:00;100518.78;;;0.69;74.85
21449;BME280;10885;52.830;13.788;2022-11-20T09:01:22;100520.53;;;0.78;74.88
21449;BME280;10885;52.830;13.788;2022-11-20T09:06:44;100524.41;;;0.75;74.72
21449;BME280;10885;52.830;13.788;2022-11-20T09:12:05;100516.53;;;0.81;74.71
21449;BME280;10885;52.830;13.788;2022-11-20T09:17:26;100518.72;;;0.95;74.94
21449;BME280;10885;52.830;13.788;2022-11-20T09:22:46;100521.63;;;1.17;74.87
21449;BME280;10885;52.830;13.788;2022-11-20T09:28:07;100525.16;;;1.19;74.62
21449;BME280;10885;52.830;13.788;2022-11-20T09:33:28;100523.09;;;1.24;74.80
21449;BME280;10885;52.830;13.788;2022-11-20T09:38:49;100515.16;;;1.38;74.51
21449;BME280;10885;52.830;13.788;2022-11-20T09:44:40;100516.44;;;1.43;74.65
21449;BME280;10885;52.830;13.788;2022-11-20T09:50:43;100510.50;;;1.51;74.60
21449;BME280;10885;52.830;13.788;2022-11-20T09:55:55;100505.38;;;1.60;74.57
21449;BME280;10885;52.830;13.788;2022-11-20T10:01:18;100501.06;;;1.59;74.49
21449;BME280;10885;52.830;13.788;2022-11-20T10:06:46;100501.25;;;1.79;74.55
21449;BME280;10885;52.830;13.788;2022-11-20T10:18:14;100480.03;;;2.15;74.42
21449;BME280;10885;52.830;13.788;2022-11-20T10:29:46;100470.06;;;2.75;74.50
21449;BME280;10885;52.830;13.788;2022-11-20T10:35:40;100480.19;;;3.15;74.34
21449;BME280;10885;52.830;13.788;2022-11-20T10:41:03;100471.97;;;3.17;73.41
21449;BME280;10885;52.830;13.788;2022-11-20T10:46:45;100473.69;;;3.08;73.21
21449;BME280;10885;52.830;13.788;2022-11-20T10:52:16;100460.47;;;3.31;73.41
21449;BME280;10885;52.830;13.788;2022-11-20T11:03:32;100466.09;;;3.08;73.24
21449;BME280;10885;52.830;13.788;2022-11-20T11:08:57;100466.97;;;2.59;73.06
21449;BME280;10885;52.830;13.788;2022-11-20T11:14:19;100464.75;;;2.43;73.22
21449;BME280;10885;52.830;13.788;2022-11-20T11:19:40;100463.19;;;2.35;73.73
21449;BME280;10885;52.830;13.788;2022-11-20T11:25:01;100453.13;;;2.26;73.99
21449;BME280;10885;52.830;13.788;2022-11-20T11:30:23;100450.28;;;2.13;73.44
21449;BME280;10885;52.830;13.788;2022-11-20T11:35:48;100435.72;;;2.10;73.84
21449;BME280;10885;52.830;13.788;2022-11-20T11:41:20;100430.41;;;2.07;73.39
21449;BME280;10885;52.830;13.788;2022-11-20T11:46:49;100433.78;;;1.97;73.65
21449;BME280;10885;52.830;13.788;2022-11-20T11:52:16;100446.69;;;1.82;73.83
21449;BME280;10885;52.830;13.788;2022-11-20T12:03:49;100428.47;;;1.48;74.02
21449;BME280;10885;52.830;13.788;2022-11-20T12:09:08;100430.22;;;1.30;74.00
21449;BME280;10885;52.830;13.788;2022-11-20T12:14:35;100431.97;;;1.03;74.07
21449;BME280;10885;52.830;13.788;2022-11-20T12:19:57;100427.75;;;0.85;74.47
21449;BME280;10885;52.830;13.788;2022-11-20T12:25:25;100431.94;;;0.75;74.42
21449;BME280;10885;52.830;13.788;2022-11-20T12:48:26;100405.19;;;0.50;74.95
21449;BME280;10885;52.830;13.788;2022-11-20T13:05:39;100409.50;;;0.42;75.13
21449;BME280;10885;52.830;13.788;2022-11-20T13:16:52;100395.25;;;0.43;75.32
21449;BME280;10885;52.830;13.788;2022-11-20T13:22:45;100388.56;;;0.43;75.49
21449;BME280;10885;52.830;13.788;2022-11-20T13:28:29;100399.41;;;0.42;75.24
21449;BME280;10885;52.830;13.788;2022-11-20T13:33:52;100387.84;;;0.35;75.55
21449;BME280;10885;52.830;13.788;2022-11-20T13:39:28;100381.19;;;0.36;75.35
21449;BME280;10885;52.830;13.788;2022-11-20T13:45:01;100384.75;;;0.29;75.56
21449;BME280;10885;52.830;13.788;2022-11-20T13:50:44;100375.09;;;0.25;75.52
21449;BME280;10885;52.830;13.788;2022-11-20T14:01:58;100380.91;;;0.15;75.52
21449;BME280;10885;52.830;13.788;2022-11-20T14:07:20;100377.09;;;0.10;75.58
21449;BME280;10885;52.830;13.788;2022-11-20T14:12:42;100378.25;;;0.14;75.74
21449;BME280;10885;52.830;13.788;2022-11-20T14:18:13;100380.75;;;0.14;75.56
21449;BME280;10885;52.830;13.788;2022-11-20T14:23:34;100379.72;;;0.12;75.51
21449;BME280;10885;52.830;13.788;2022-11-20T14:28:55;100377.09;;;0.10;75.81
21449;BME280;10885;52.830;13.788;2022-11-20T14:34:19;100376.06;;;0.08;75.66
21449;BME280;10885;52.830;13.788;2022-11-20T14:39:47;100380.19;;;0.08;75.68
21449;BME280;10885;52.830;13.788;2022-11-20T14:45:11;100360.78;;;0.07;75.72
21449;BME280;10885;52.830;13.788;2022-11-20T14:50:33;100359.75;;;0.05;75.83
21449;BME280;10885;52.830;13.788;2022-11-20T14:55:59;100360.91;;;-0.01;75.63
21449;BME280;10885;52.830;13.788;2022-11-20T15:01:26;100360.66;;;-0.04;75.31
21449;BME280;10885;52.830;13.788;2022-11-20T15:06:53;100357.81;;;-0.07;75.89
21449;BME280;10885;52.830;13.788;2022-11-20T15:12:17;100366.88;;;-0.09;75.76
21449;BME280;10885;52.830;13.788;2022-11-20T15:17:40;100361.81;;;-0.09;75.42
21449;BME280;10885;52.830;13.788;2022-11-20T15:23:01;100360.94;;;-0.09;75.73
21449;BME280;10885;52.830;13.788;2022-11-20T15:28:46;100351.59;;;-0.10;75.88
21449;BME280;10885;52.830;13.788;2022-11-20T15:34:13;100354.72;;;-0.13;75.42
21449;BME280;10885;52.830;13.788;2022-11-20T15:39:35;100348.81;;;-0.13;75.76
21449;BME280;10885;52.830;13.788;2022-11-20T15:44:56;100339.34;;;-0.16;75.51
21449;BME280;10885;52.830;13.788;2022-11-20T15:50:17;100337.69;;;-0.15;75.38
21449;BME280;10885;52.830;13.788;2022-11-20T15:55:38;100336.66;;;-0.17;75.64
21449;BME280;10885;52.830;13.788;2022-11-20T16:00:59;100340.66;;;-0.19;75.38
21449;BME280;10885;52.830;13.788;2022-11-20T16:06:20;100342.41;;;-0.18;75.76
21449;BME280;10885;52.830;13.788;2022-11-20T16:11:41;100341.22;;;-0.22;75.77
21449;BME280;10885;52.830;13.788;2022-11-20T16:17:02;100345.69;;;-0.19;75.49
21449;BME280;10885;52.830;13.788;2022-11-20T16:22:23;100346.28;;;-0.22;76.25
21449;BME280;10885;52.830;13.788;2022-11-20T16:27:44;100349.09;;;-0.19;76.17
21449;BME280;10885;52.830;13.788;2022-11-20T16:33:10;100346.41;;;-0.21;76.03
21449;BME280;10885;52.830;13.788;2022-11-20T16:38:33;100345.53;;;-0.21;75.56
21449;BME280;10885;52.830;13.788;2022-11-20T16:43:55;100352.06;;;-0.23;75.38
21449;BME280;10885;52.830;13.788;2022-11-20T16:49:20;100345.22;;;-0.24;75.97
21449;BME280;10885;52.830;13.788;2022-11-20T16:54:40;100357.72;;;-0.26;75.35
21449;BME280;10885;52.830;13.788;2022-11-20T17:00:02;100355.91;;;-0.27;75.87
21449;BME280;10885;52.830;13.788;2022-11-20T17:05:23;100358.44;;;-0.27;75.79
21449;BME280;10885;52.830;13.788;2022-11-20T17:10:44;100355.03;;;-0.27;75.93
21449;BME280;10885;52.830;13.788;2022-11-20T17:16:14;100350.72;;;-0.28;76.28
21449;BME280;10885;52.830;13.788;2022-11-20T17:21:36;100346.59;;;-0.28;76.01
21449;BME280;10885;52.830;13.788;2022-11-20T17:26:57;100351.63;;;-0.28;76.06
21449;BME280;10885;52.830;13.788;2022-11-20T17:32:18;100344.97;;;-0.27;75.77
21449;BME280;10885;52.830;13.788;2022-11-20T17:37:39;100347.47;;;-0.27;75.84
21449;BME280;10885;52.830;13.788;2022-11-20T17:43:00;100344.81;;;-0.29;75.40
21449;BME280;10885;52.830;13.788;2022-11-20T17:48:21;100344.66;;;-0.30;75.58
21449;BME280;10885;52.830;13.788;2022-11-20T17:53:43;100346.13;;;-0.32;75.74
21449;BME280;10885;52.830;13.788;2022-11-20T17:59:06;100350.91;;;-0.35;75.59
21449;BME280;10885;52.830;13.788;2022-11-20T18:04:26;100349.25;;;-0.35;75.65
21449;BME280;10885;52.830;13.788;2022-11-20T18:09:47;100336.34;;;-0.38;75.75
21449;BME280;10885;52.830;13.788;2022-11-20T18:15:08;100341.25;;;-0.39;75.58
21449;BME280;10885;52.830;13.788;2022-11-20T18:20:29;100325.25;;;-0.40;76.00
21449;BME280;10885;52.830;13.788;2022-11-20T18:25:59;100329.56;;;-0.39;75.73
21449;BME280;10885;52.830;13.788;2022-11-20T18:31:20;100309.25;;;-0.41;75.49
21449;BME280;10885;52.830;13.788;2022-11-20T18:36:41;100308.97;;;-0.44;75.77
21449;BME280;10885;52.830;13.788;2022-11-20T18:42:02;100308.97;;;-0.44;75.93
21449;BME280;10885;52.830;13.788;2022-11-20T18:47:42;100307.03;;;-0.46;75.45
21449;BME280;10885;52.830;13.788;2022-11-20T18:53:03;100319.78;;;-0.45;75.65
21449;BME280;10885;52.830;13.788;2022-11-20T18:58:26;100320.53;;;-0.46;75.77
21449;BME280;10885;52.830;13.788;2022-11-20T19:03:48;100312.97;;;-0.46;75.65
21449;BME280;10885;52.830;13.788;2022-11-20T19:09:10;100307.63;;;-0.49;75.38
21449;BME280;10885;52.830;13.788;2022-11-20T19:14:32;100307.47;;;-0.50;75.67
21449;BME280;10885;52.830;13.788;2022-11-20T19:19:53;100306.59;;;-0.51;75.47
21449;BME280;10885;52.830;13.788;2022-11-20T19:25:14;100310.16;;;-0.49;75.49
21449;BME280;10885;52.830;13.788;2022-11-20T19:30:35;100306.59;;;-0.51;75.70
21449;BME280;10885;52.830;13.788;2022-11-20T19:35:56;100310.00;;;-0.50;75.89
21449;BME280;10885;52.830;13.788;2022-11-20T19:41:23;100309.13;;;-0.51;76.08
21449;BME280;10885;52.830;13.788;2022-11-20T19:46:51;100299.91;;;-0.50;75.74
21449;BME280;10885;52.830;13.788;2022-11-20T19:52:12;100306.59;;;-0.51;75.69
21449;BME280;10885;52.830;13.788;2022-11-20T19:57:33;100300.81;;;-0.50;75.64
21449;BME280;10885;52.830;13.788;2022-11-20T20:02:53;100301.56;;;-0.51;75.43
21449;BME280;10885;52.830;13.788;2022-11-20T20:08:14;100286.16;;;-0.54;75.67
21449;BME280;10885;52.830;13.788;2022-11-20T20:13:36;100288.81;;;-0.52;75.80
21449;BME280;10885;52.830;13.788;2022-11-20T20:18:59;100284.53;;;-0.53;75.91
21449;BME280;10885;52.830;13.788;2022-11-20T20:24:21;100291.06;;;-0.55;76.22
21449;BME280;10885;52.830;13.788;2022-11-20T20:29:42;100291.06;;;-0.55;75.89
21449;BME280;10885;52.830;13.788;2022-11-20T20:35:04;100288.66;;;-0.54;75.47
21449;BME280;10885;52.830;13.788;2022-11-20T20:40:25;100286.16;;;-0.54;76.22
21449;BME280;10885;52.830;13.788;2022-11-20T20:45:47;100274.47;;;-0.53;75.35
21449;BME280;10885;52.830;13.788;2022-11-20T20:51:08;100271.03;;;-0.54;75.43
21449;BME280;10885;52.830;13.788;2022-11-20T20:56:29;100269.28;;;-0.55;75.49
21449;BME280;10885;52.830;13.788;2022-11-20T21:01:50;100257.56;;;-0.54;75.85
21449;BME280;10885;52.830;13.788;2022-11-20T21:07:11;100254.91;;;-0.56;75.70
